createdAt,value
2019-04-06T00:01:23.455Z,80.35
2019-04-06T00:03:54.826Z,75.52
2019-04-06T00:06:26.283Z,76.25
2019-04-06T00:08:57.559Z,69.70
2019-04-06T00:11:28.951Z,76.37
2019-04-06T00:14:00.232Z,77.32
2019-04-06T00:16:31.610Z,79.77
2019-04-06T00:19:02.841Z,81.35
2019-04-06T00:21:34.067Z,94.62
2019-04-06T00:24:05.462Z,92.15
2019-04-06T00:27:01.680Z,86.72
2019-04-06T00:29:32.905Z,92.33
2019-04-06T00:32:11.901Z,87.42
2019-04-06T00:34:43.119Z,86.20
2019-04-06T00:37:14.537Z,87.57
2019-04-06T00:39:45.817Z,83.05
2019-04-06T00:42:17.231Z,101.62
2019-04-06T00:44:49.584Z,93.33
2019-04-06T00:47:20.889Z,108.90
2019-04-06T00:49:52.169Z,106.58
2019-04-06T00:52:23.432Z,97.27
2019-04-06T00:54:54.679Z,104.63
2019-04-06T00:57:26.022Z,103.17
2019-04-06T00:59:57.301Z,99.22
2019-04-06T01:02:28.683Z,98.33
2019-04-06T01:04:59.965Z,102.70
2019-04-06T01:07:31.475Z,95.40
2019-04-06T01:10:03.119Z,98.85
2019-04-06T01:12:34.509Z,103.20
2019-04-06T01:15:07.398Z,94.37
2019-04-06T01:17:38.721Z,90.22
2019-04-06T01:20:10.257Z,91.55
2019-04-06T01:22:41.570Z,94.35
2019-04-06T01:25:13.842Z,85.53
2019-04-06T01:27:45.135Z,90.03
2019-04-06T01:30:16.669Z,89.47
2019-04-06T01:32:47.934Z,87.85
2019-04-06T01:35:19.257Z,83.60
2019-04-06T01:37:50.618Z,91.02
2019-04-06T01:40:21.750Z,91.00
2019-04-06T01:42:54.155Z,94.50
2019-04-06T01:45:26.309Z,90.22
2019-04-06T01:47:57.754Z,93.30
2019-04-06T01:50:29.071Z,87.65
2019-04-06T01:53:00.420Z,87.05
2019-04-06T01:55:31.625Z,88.33
2019-04-06T01:58:02.934Z,92.30
2019-04-06T02:00:34.281Z,92.12
2019-04-06T02:03:05.601Z,92.02
2019-04-06T02:05:36.878Z,89.67
2019-04-06T02:08:08.225Z,88.62
2019-04-06T02:10:39.519Z,90.83
2019-04-06T02:13:10.854Z,92.02
2019-04-06T02:15:43.101Z,88.80
2019-04-06T02:18:14.409Z,90.10
2019-04-06T02:20:45.681Z,79.70
2019-04-06T02:23:17.031Z,86.95
2019-04-06T02:25:48.270Z,94.72
2019-04-06T02:28:19.567Z,95.60
2019-04-06T02:30:58.201Z,83.65
2019-04-06T02:33:31.097Z,80.67
2019-04-06T02:36:06.726Z,81.28
2019-04-06T02:38:45.731Z,81.30
2019-04-06T02:41:21.357Z,84.52
2019-04-06T02:43:52.688Z,87.90
2019-04-06T02:46:24.848Z,83.25
2019-04-06T02:48:56.197Z,90.07
2019-04-06T02:51:27.551Z,94.30
2019-04-06T02:53:58.767Z,87.62
2019-04-06T02:56:44.341Z,92.47
2019-04-06T02:59:03.077Z,88.90
2019-04-06T03:01:34.343Z,89.00
2019-04-06T03:04:05.719Z,85.35
2019-04-06T03:06:36.938Z,93.22
2019-04-06T03:09:11.314Z,94.35
2019-04-06T03:11:41.245Z,85.07
2019-04-06T03:14:12.511Z,90.30
2019-04-06T03:16:43.718Z,82.55
2019-04-06T03:19:15.000Z,86.95
2019-04-06T03:21:46.245Z,93.92
2019-04-06T03:24:17.541Z,84.92
2019-04-06T03:27:00.990Z,95.07
2019-04-06T03:29:21.905Z,84.22
2019-04-06T03:31:53.164Z,83.20
2019-04-06T03:34:24.475Z,82.85
2019-04-06T03:36:55.721Z,79.40
2019-04-06T03:39:27.077Z,79.03
2019-04-06T03:41:58.410Z,88.15
2019-04-06T03:44:29.736Z,87.30
2019-04-06T03:47:02.123Z,83.55
2019-04-06T03:49:33.486Z,82.57
2019-04-06T03:52:04.799Z,86.82
2019-04-06T03:54:36.216Z,82.57
2019-04-06T03:57:14.419Z,87.20
2019-04-06T03:59:40.716Z,84.58
2019-04-06T04:02:12.064Z,86.47
2019-04-06T04:04:43.319Z,94.00
2019-04-06T04:07:14.585Z,93.58
2019-04-06T04:09:46.291Z,88.50
2019-04-06T04:12:17.563Z,88.15
2019-04-06T04:14:48.908Z,92.27
2019-04-06T04:17:20.513Z,85.65
2019-04-06T04:19:52.089Z,89.42
2019-04-06T04:22:23.425Z,95.55
2019-04-06T04:24:55.900Z,97.15
2019-04-06T04:27:30.198Z,93.30
2019-04-06T04:30:00.487Z,95.45
2019-04-06T04:32:31.834Z,100.20
2019-04-06T04:35:03.224Z,98.42
2019-04-06T04:37:34.514Z,96.55
2019-04-06T04:40:05.942Z,94.58
2019-04-06T04:42:38.096Z,97.65
2019-04-06T04:45:09.608Z,107.83
2019-04-06T04:47:41.696Z,102.22
2019-04-06T04:50:13.191Z,99.70
2019-04-06T04:52:44.537Z,103.05
2019-04-06T04:55:15.842Z,110.40
2019-04-06T04:57:47.093Z,129.63
2019-04-06T05:00:18.381Z,117.05
2019-04-06T05:02:50.654Z,110.80
2019-04-06T05:05:21.891Z,105.72
2019-04-06T05:07:53.213Z,108.57
2019-04-06T05:10:24.571Z,107.17
2019-04-06T05:12:55.749Z,109.60
2019-04-06T05:15:35.953Z,118.85
2019-04-06T05:18:07.145Z,108.17
2019-04-06T05:20:38.474Z,113.30
2019-04-06T05:23:09.801Z,109.25
2019-04-06T05:25:41.174Z,105.00
2019-04-06T05:28:12.465Z,102.50
2019-04-06T05:30:43.789Z,102.45
2019-04-06T05:33:15.114Z,116.90
2019-04-06T05:35:46.431Z,108.87
2019-04-06T05:38:17.775Z,111.03
2019-04-06T05:40:49.080Z,101.27
2019-04-06T05:43:20.349Z,110.52
2019-04-06T05:45:51.674Z,108.00
2019-04-06T05:48:23.957Z,122.58
2019-04-06T05:50:55.527Z,112.72
2019-04-06T05:53:26.867Z,112.17
2019-04-06T05:55:58.191Z,112.55
2019-04-06T05:58:29.564Z,111.08
2019-04-06T06:01:03.699Z,120.37
2019-04-06T06:03:34.057Z,98.97
2019-04-06T06:06:05.433Z,107.72
2019-04-06T06:08:38.260Z,105.00
2019-04-06T06:11:09.664Z,96.42
2019-04-06T06:13:40.935Z,89.52
2019-04-06T06:16:12.370Z,89.58
2019-04-06T06:18:43.697Z,90.10
2019-04-06T06:21:15.006Z,90.62
2019-04-06T06:23:46.444Z,85.83
2019-04-06T06:26:17.981Z,79.45
2019-04-06T06:28:50.451Z,71.45
2019-04-06T06:31:21.900Z,72.10
2019-04-06T06:33:53.253Z,69.30
2019-04-06T06:36:24.618Z,77.45
2019-04-06T06:38:55.949Z,61.10
2019-04-06T06:41:27.421Z,72.85
2019-04-06T06:43:58.875Z,66.07
2019-04-06T06:46:30.253Z,78.20
2019-04-06T06:49:02.551Z,70.37
2019-04-06T06:51:34.280Z,73.27
2019-04-06T06:54:07.456Z,71.75
2019-04-06T06:56:38.724Z,73.17
2019-04-06T06:59:10.187Z,69.90
2019-04-06T07:01:41.525Z,74.77
2019-04-06T07:04:12.742Z,64.72
2019-04-06T07:06:43.988Z,76.70
2019-04-06T07:09:16.402Z,67.85
2019-04-06T07:11:47.798Z,63.83
2019-04-06T07:14:19.408Z,63.05
2019-04-06T07:16:50.718Z,57.75
2019-04-06T07:19:22.067Z,60.23
2019-04-06T07:21:53.511Z,56.73
2019-04-06T07:24:25.003Z,55.12
2019-04-06T07:26:56.683Z,56.98
2019-04-06T07:29:28.156Z,48.68
2019-04-06T07:32:02.686Z,49.30
2019-04-06T07:34:34.975Z,49.73
2019-04-06T07:37:08.416Z,44.38
2019-04-06T07:39:40.664Z,46.30
2019-04-06T07:42:12.593Z,42.67
2019-04-06T07:44:44.589Z,36.50
2019-04-06T07:47:16.383Z,39.00
2019-04-06T07:49:49.057Z,37.83
2019-04-06T07:52:20.459Z,38.47
2019-04-06T07:54:51.822Z,39.78
2019-04-06T07:57:23.249Z,36.93
2019-04-06T07:59:54.665Z,38.20
2019-04-06T08:02:26.038Z,35.65
2019-04-06T08:04:57.493Z,36.08
2019-04-06T08:07:29.123Z,37.58
2019-04-06T08:10:01.996Z,32.05
2019-04-06T08:12:34.708Z,32.00
2019-04-06T08:15:08.086Z,34.63
2019-04-06T08:17:40.689Z,37.23
2019-04-06T08:20:12.220Z,35.80
2019-04-06T08:22:43.778Z,33.55
2019-04-06T08:25:16.424Z,30.30
2019-04-06T08:27:47.904Z,68.37
2019-04-06T08:30:19.415Z,39.10
2019-04-06T08:32:50.744Z,30.77
2019-04-06T08:35:25.994Z,33.50
2019-04-06T08:37:55.200Z,47.03
2019-04-06T08:40:26.660Z,36.03
2019-04-06T08:42:58.422Z,26.40
2019-04-06T08:45:29.823Z,45.52
2019-04-06T08:48:01.205Z,30.45
2019-04-06T08:50:33.678Z,38.80
2019-04-06T08:53:05.031Z,32.75
2019-04-06T08:55:36.713Z,38.83
2019-04-06T08:58:08.214Z,31.23
2019-04-06T09:00:39.534Z,32.15
2019-04-06T09:03:11.908Z,32.55
2019-04-06T09:05:43.358Z,30.45
2019-04-06T09:08:16.539Z,33.30
2019-04-06T09:10:48.078Z,47.67
2019-04-06T09:13:19.526Z,35.10
2019-04-06T09:15:51.029Z,202.70
2019-04-06T09:18:22.721Z,34.90
2019-04-06T09:20:54.190Z,113.47
2019-04-06T09:23:25.892Z,80.22
2019-04-06T09:25:57.859Z,34.08
2019-04-06T09:28:29.724Z,60.98
2019-04-06T09:31:02.183Z,26.87
2019-04-06T09:33:33.702Z,25.62
2019-04-06T09:36:05.197Z,22.40
2019-04-06T09:38:36.592Z,20.97
2019-04-06T09:41:08.045Z,21.42
2019-04-06T09:43:39.416Z,23.42
2019-04-06T09:46:15.671Z,22.22
2019-04-06T09:49:01.021Z,19.87
2019-04-06T09:51:52.954Z,16.10
2019-04-06T09:54:29.822Z,22.85
2019-04-06T09:57:05.831Z,18.67
2019-04-06T09:59:48.475Z,18.07
2019-04-06T10:02:21.699Z,27.13
2019-04-06T10:05:10.039Z,29.07
2019-04-06T10:07:43.061Z,25.90
2019-04-06T10:10:29.035Z,23.52
2019-04-06T10:13:11.022Z,21.62
2019-04-06T10:15:46.776Z,24.00
2019-04-06T10:18:35.969Z,20.82
2019-04-06T10:21:20.853Z,95.53
2019-04-06T10:24:09.983Z,53.78
2019-04-06T10:26:42.896Z,27.60
2019-04-06T10:29:31.114Z,36.48
2019-04-06T10:32:06.833Z,38.83
2019-04-06T10:34:39.797Z,47.05
2019-04-06T10:39:09.938Z,21.17
2019-04-06T10:41:48.888Z,23.00
2019-04-06T10:44:28.093Z,19.98
2019-04-06T10:47:16.753Z,23.00
2019-04-06T10:49:52.721Z,23.57
2019-04-06T10:52:26.988Z,21.20
2019-04-06T10:55:00.216Z,19.05
2019-04-06T10:57:41.946Z,19.25
2019-04-06T11:00:31.229Z,18.60
2019-04-06T11:03:04.231Z,22.77
2019-04-06T11:05:49.446Z,19.52
2019-04-06T11:08:22.435Z,15.65
2019-04-06T11:11:04.702Z,20.80
2019-04-06T11:13:37.610Z,17.80
2019-04-06T11:16:22.802Z,21.82
2019-04-06T11:19:01.548Z,20.68
2019-04-06T11:21:46.569Z,22.75
2019-04-06T11:24:35.829Z,22.10
2019-04-06T11:27:27.264Z,30.30
2019-04-06T11:30:14.747Z,22.93
2019-04-06T11:33:02.028Z,17.17
2019-04-06T11:35:50.847Z,16.17
2019-04-06T11:38:23.802Z,20.43
2019-04-06T11:40:56.717Z,80.03
2019-04-06T11:43:33.530Z,34.90
2019-04-06T11:46:12.615Z,51.73
2019-04-06T11:49:01.985Z,141.97
2019-04-06T11:51:37.921Z,34.00
2019-04-06T11:54:17.063Z,32.00
2019-04-06T11:56:56.141Z,21.40
2019-04-06T11:59:29.120Z,19.82
2019-04-06T12:02:02.937Z,18.65
2019-04-06T12:04:38.781Z,139.57
2019-04-06T12:07:11.657Z,28.92
2019-04-06T12:10:00.801Z,21.00
2019-04-06T12:12:49.290Z,22.58
2019-04-06T12:15:25.100Z,25.68
2019-04-06T12:17:58.000Z,22.58
2019-04-06T12:20:30.980Z,23.05
2019-04-06T12:23:03.904Z,20.88
2019-04-06T12:25:39.828Z,21.90
2019-04-06T12:28:12.640Z,19.85
2019-04-06T12:31:01.830Z,17.50
2019-04-06T12:33:43.758Z,23.85
2019-04-06T12:36:19.645Z,21.00
2019-04-06T12:38:52.859Z,28.50
2019-04-06T12:41:26.256Z,28.30
2019-04-06T12:44:15.404Z,29.02
